sensor_id;sensor_type;location;lat;lon;timestamp;P1;durP1;ratioP1;P2;durP2;ratioP2
51987;SDS011;38003;52.012;4.346;2023-02-23T00:00:24;60.83;;;54.20;;
51987;SDS011;38003;52.012;4.346;2023-02-23T00:02:55;69.80;;;62.80;;
51987;SDS011;38003;52.012;4.346;2023-02-23T00:05:26;72.03;;;64.97;;
51987;SDS011;38003;52.012;4.346;2023-02-23T00:07:55;65.87;;;58.87;;
51987;SDS011;38003;52.012;4.346;2023-02-23T00:10:23;63.00;;;55.40;;
51987;SDS011;38003;52.012;4.346;2023-02-23T00:12:56;56.03;;;47.30;;
51987;SDS011;38003;52.012;4.346;2023-02-23T00:15:24;52.97;;;42.63;;
51987;SDS011;38003;52.012;4.346;2023-02-23T00:17:53;53.13;;;42.93;;
51987;SDS011;38003;52.012;4.346;2023-02-23T00:20:23;52.57;;;41.73;;
51987;SDS011;38003;52.012;4.346;2023-02-23T00:22:52;55.23;;;45.17;;
51987;SDS011;38003;52.012;4.346;2023-02-23T00:25:21;53.13;;;43.13;;
51987;SDS011;38003;52.012;4.346;2023-02-23T00:27:49;53.00;;;44.57;;
51987;SDS011;38003;52.012;4.346;2023-02-23T00:30:18;60.30;;;46.10;;
51987;SDS011;38003;52.012;4.346;2023-02-23T00:32:46;54.57;;;45.23;;
51987;SDS011;38003;52.012;4.346;2023-02-23T00:35:17;54.70;;;45.23;;
51987;SDS011;38003;52.012;4.346;2023-02-23T00:37:47;54.27;;;44.27;;
51987;SDS011;38003;52.012;4.346;2023-02-23T00:40:16;54.20;;;44.63;;
51987;SDS011;38003;52.012;4.346;2023-02-23T00:42:46;54.07;;;44.27;;
51987;SDS011;38003;52.012;4.346;2023-02-23T00:45:17;54.33;;;44.33;;
51987;SDS011;38003;52.012;4.346;2023-02-23T00:47:45;55.87;;;43.70;;
51987;SDS011;38003;52.012;4.346;2023-02-23T00:50:15;53.97;;;45.70;;
51987;SDS011;38003;52.012;4.346;2023-02-23T00:52:43;54.77;;;47.00;;
51987;SDS011;38003;52.012;4.346;2023-02-23T00:55:13;54.60;;;44.43;;
51987;SDS011;38003;52.012;4.346;2023-02-23T00:57:41;54.17;;;39.20;;
51987;SDS011;38003;52.012;4.346;2023-02-23T01:00:10;55.00;;;38.90;;
51987;SDS011;38003;52.012;4.346;2023-02-23T01:02:43;50.87;;;41.50;;
51987;SDS011;38003;52.012;4.346;2023-02-23T01:05:12;51.40;;;40.13;;
51987;SDS011;38003;52.012;4.346;2023-02-23T01:07:40;50.37;;;38.43;;
51987;SDS011;38003;52.012;4.346;2023-02-23T01:10:11;52.70;;;40.67;;
51987;SDS011;38003;52.012;4.346;2023-02-23T01:12:47;55.40;;;43.13;;
51987;SDS011;38003;52.012;4.346;2023-02-23T01:15:16;49.70;;;40.13;;
51987;SDS011;38003;52.012;4.346;2023-02-23T01:17:44;56.87;;;41.73;;
51987;SDS011;38003;52.012;4.346;2023-02-23T01:20:13;56.57;;;46.30;;
51987;SDS011;38003;52.012;4.346;2023-02-23T01:22:44;57.27;;;44.83;;
51987;SDS011;38003;52.012;4.346;2023-02-23T01:25:13;57.23;;;43.33;;
51987;SDS011;38003;52.012;4.346;2023-02-23T01:27:42;58.80;;;48.27;;
51987;SDS011;38003;52.012;4.346;2023-02-23T01:30:12;57.27;;;50.30;;
51987;SDS011;38003;52.012;4.346;2023-02-23T01:32:40;62.37;;;48.37;;
51987;SDS011;38003;52.012;4.346;2023-02-23T01:35:09;58.97;;;47.03;;
51987;SDS011;38003;52.012;4.346;2023-02-23T01:37:39;57.93;;;50.30;;
51987;SDS011;38003;52.012;4.346;2023-02-23T01:40:09;55.50;;;43.50;;
51987;SDS011;38003;52.012;4.346;2023-02-23T01:42:41;55.03;;;44.57;;
51987;SDS011;38003;52.012;4.346;2023-02-23T01:45:30;61.07;;;54.40;;
51987;SDS011;38003;52.012;4.346;2023-02-23T01:48:01;59.00;;;49.93;;
51987;SDS011;38003;52.012;4.346;2023-02-23T01:50:33;56.80;;;45.40;;
51987;SDS011;38003;52.012;4.346;2023-02-23T01:53:03;63.97;;;51.93;;
51987;SDS011;38003;52.012;4.346;2023-02-23T01:55:32;62.97;;;56.07;;
51987;SDS011;38003;52.012;4.346;2023-02-23T01:58:03;69.40;;;61.93;;
51987;SDS011;38003;52.012;4.346;2023-02-23T02:00:33;70.70;;;63.50;;
51987;SDS011;38003;52.012;4.346;2023-02-23T02:03:03;74.63;;;67.07;;
51987;SDS011;38003;52.012;4.346;2023-02-23T02:05:34;71.00;;;63.53;;
51987;SDS011;38003;52.012;4.346;2023-02-23T02:08:04;74.30;;;67.03;;
51987;SDS011;38003;52.012;4.346;2023-02-23T02:10:35;77.23;;;69.27;;
51987;SDS011;38003;52.012;4.346;2023-02-23T02:13:13;73.57;;;65.90;;
51987;SDS011;38003;52.012;4.346;2023-02-23T02:15:50;80.07;;;72.33;;
51987;SDS011;38003;52.012;4.346;2023-02-23T02:18:21;78.13;;;70.60;;
51987;SDS011;38003;52.012;4.346;2023-02-23T02:21:08;84.57;;;76.70;;
51987;SDS011;38003;52.012;4.346;2023-02-23T02:24:01;76.07;;;68.67;;
51987;SDS011;38003;52.012;4.346;2023-02-23T02:26:36;66.10;;;59.07;;
51987;SDS011;38003;52.012;4.346;2023-02-23T02:34:57;71.30;;;63.50;;
51987;SDS011;38003;52.012;4.346;2023-02-23T02:37:39;67.53;;;60.10;;
51987;SDS011;38003;52.012;4.346;2023-02-23T02:40:10;69.63;;;62.00;;
51987;SDS011;38003;52.012;4.346;2023-02-23T02:42:59;66.57;;;57.53;;
51987;SDS011;38003;52.012;4.346;2023-02-23T02:45:39;73.40;;;65.63;;
51987;SDS011;38003;52.012;4.346;2023-02-23T02:48:11;70.67;;;61.53;;
51987;SDS011;38003;52.012;4.346;2023-02-23T02:50:42;75.33;;;67.37;;
51987;SDS011;38003;52.012;4.346;2023-02-23T02:53:13;67.93;;;60.57;;
51987;SDS011;38003;52.012;4.346;2023-02-23T02:55:45;74.13;;;66.50;;
51987;SDS011;38003;52.012;4.346;2023-02-23T02:58:14;84.80;;;76.23;;
51987;SDS011;38003;52.012;4.346;2023-02-23T03:00:45;75.27;;;67.83;;
51987;SDS011;38003;52.012;4.346;2023-02-23T03:03:31;71.87;;;64.07;;
51987;SDS011;38003;52.012;4.346;2023-02-23T03:06:18;72.73;;;64.93;;
51987;SDS011;38003;52.012;4.346;2023-02-23T03:09:07;72.37;;;59.77;;
51987;SDS011;38003;52.012;4.346;2023-02-23T03:12:00;77.73;;;69.40;;
51987;SDS011;38003;52.012;4.346;2023-02-23T03:14:48;77.07;;;68.97;;
51987;SDS011;38003;52.012;4.346;2023-02-23T03:17:41;91.80;;;83.10;;
51987;SDS011;38003;52.012;4.346;2023-02-23T03:20:29;101.43;;;92.20;;
51987;SDS011;38003;52.012;4.346;2023-02-23T03:23:18;103.97;;;94.10;;
51987;SDS011;38003;52.012;4.346;2023-02-23T03:26:07;128.13;;;117.90;;
51987;SDS011;38003;52.012;4.346;2023-02-23T03:28:56;130.93;;;120.17;;
51987;SDS011;38003;52.012;4.346;2023-02-23T03:31:45;127.33;;;116.67;;
51987;SDS011;38003;52.012;4.346;2023-02-23T03:34:34;145.90;;;134.77;;
51987;SDS011;38003;52.012;4.346;2023-02-23T03:37:23;131.97;;;121.70;;
51987;SDS011;38003;52.012;4.346;2023-02-23T03:40:11;119.23;;;108.83;;
51987;SDS011;38003;52.012;4.346;2023-02-23T03:42:59;120.63;;;110.40;;
51987;SDS011;38003;52.012;4.346;2023-02-23T03:45:46;104.50;;;95.50;;
51987;SDS011;38003;52.012;4.346;2023-02-23T03:48:33;90.60;;;82.23;;
51987;SDS011;38003;52.012;4.346;2023-02-23T03:51:20;80.13;;;72.40;;
51987;SDS011;38003;52.012;4.346;2023-02-23T03:54:08;79.10;;;70.97;;
51987;SDS011;38003;52.012;4.346;2023-02-23T03:56:57;79.73;;;71.53;;
51987;SDS011;38003;52.012;4.346;2023-02-23T03:59:46;73.47;;;65.97;;
51987;SDS011;38003;52.012;4.346;2023-02-23T04:02:34;70.20;;;56.93;;
51987;SDS011;38003;52.012;4.346;2023-02-23T04:05:21;73.43;;;65.73;;
51987;SDS011;38003;52.012;4.346;2023-02-23T04:08:08;73.60;;;66.00;;
51987;SDS011;38003;52.012;4.346;2023-02-23T04:10:57;67.67;;;59.97;;
51987;SDS011;38003;52.012;4.346;2023-02-23T04:13:45;62.33;;;53.93;;
51987;SDS011;38003;52.012;4.346;2023-02-23T04:16:16;66.70;;;55.40;;
51987;SDS011;38003;52.012;4.346;2023-02-23T04:18:43;61.93;;;52.23;;
51987;SDS011;38003;52.012;4.346;2023-02-23T04:21:12;64.50;;;51.73;;
51987;SDS011;38003;52.012;4.346;2023-02-23T04:23:40;64.47;;;56.27;;
51987;SDS011;38003;52.012;4.346;2023-02-23T04:26:09;65.73;;;52.67;;
51987;SDS011;38003;52.012;4.346;2023-02-23T04:28:37;61.67;;;50.50;;
51987;SDS011;38003;52.012;4.346;2023-02-23T04:31:05;62.90;;;52.30;;
51987;SDS011;38003;52.012;4.346;2023-02-23T04:33:35;67.77;;;53.10;;
51987;SDS011;38003;52.012;4.346;2023-02-23T04:36:03;67.57;;;50.37;;
51987;SDS011;38003;52.012;4.346;2023-02-23T04:38:31;60.73;;;44.37;;
51987;SDS011;38003;52.012;4.346;2023-02-23T04:41:00;61.50;;;45.37;;
51987;SDS011;38003;52.012;4.346;2023-02-23T04:43:28;62.13;;;44.43;;
51987;SDS011;38003;52.012;4.346;2023-02-23T04:45:56;63.20;;;43.77;;
51987;SDS011;38003;52.012;4.346;2023-02-23T04:48:24;67.57;;;51.47;;
51987;SDS011;38003;52.012;4.346;2023-02-23T04:50:54;68.00;;;55.73;;
51987;SDS011;38003;52.012;4.346;2023-02-23T04:53:22;69.90;;;56.60;;
51987;SDS011;38003;52.012;4.346;2023-02-23T04:55:52;77.57;;;64.93;;
51987;SDS011;38003;52.012;4.346;2023-02-23T04:58:20;69.20;;;58.87;;
51987;SDS011;38003;52.012;4.346;2023-02-23T05:00:49;69.40;;;54.67;;
51987;SDS011;38003;52.012;4.346;2023-02-23T05:03:17;67.63;;;51.47;;
51987;SDS011;38003;52.012;4.346;2023-02-23T05:05:45;65.03;;;51.23;;
51987;SDS011;38003;52.012;4.346;2023-02-23T05:08:14;61.47;;;48.27;;
51987;SDS011;38003;52.012;4.346;2023-02-23T05:10:44;63.63;;;48.83;;
51987;SDS011;38003;52.012;4.346;2023-02-23T05:13:13;64.43;;;48.87;;
51987;SDS011;38003;52.012;4.346;2023-02-23T05:15:41;68.77;;;55.90;;
51987;SDS011;38003;52.012;4.346;2023-02-23T05:18:09;63.17;;;52.10;;
51987;SDS011;38003;52.012;4.346;2023-02-23T05:20:40;70.33;;;52.17;;
51987;SDS011;38003;52.012;4.346;2023-02-23T05:23:10;69.67;;;56.73;;
51987;SDS011;38003;52.012;4.346;2023-02-23T05:25:39;73.10;;;65.27;;
51987;SDS011;38003;52.012;4.346;2023-02-23T05:28:07;76.73;;;68.50;;
51987;SDS011;38003;52.012;4.346;2023-02-23T05:30:36;72.13;;;64.27;;
51987;SDS011;38003;52.012;4.346;2023-02-23T05:33:04;78.90;;;70.23;;
51987;SDS011;38003;52.012;4.346;2023-02-23T05:35:32;77.23;;;69.07;;
51987;SDS011;38003;52.012;4.346;2023-02-23T05:38:00;66.33;;;57.23;;
51987;SDS011;38003;52.012;4.346;2023-02-23T05:40:29;70.60;;;62.10;;
51987;SDS011;38003;52.012;4.346;2023-02-23T05:42:59;68.73;;;61.33;;
51987;SDS011;38003;52.012;4.346;2023-02-23T05:45:27;74.30;;;66.50;;
51987;SDS011;38003;52.012;4.346;2023-02-23T05:47:55;65.37;;;58.20;;
51987;SDS011;38003;52.012;4.346;2023-02-23T05:50:24;64.50;;;56.03;;
51987;SDS011;38003;52.012;4.346;2023-02-23T05:52:52;67.23;;;54.50;;
51987;SDS011;38003;52.012;4.346;2023-02-23T05:55:20;62.10;;;51.83;;
51987;SDS011;38003;52.012;4.346;2023-02-23T05:57:48;63.37;;;46.83;;
51987;SDS011;38003;52.012;4.346;2023-02-23T06:00:18;62.37;;;50.60;;
51987;SDS011;38003;52.012;4.346;2023-02-23T06:02:47;65.00;;;50.23;;
51987;SDS011;38003;52.012;4.346;2023-02-23T06:05:17;67.07;;;52.60;;
51987;SDS011;38003;52.012;4.346;2023-02-23T06:07:45;69.03;;;57.90;;
51987;SDS011;38003;52.012;4.346;2023-02-23T06:10:13;64.87;;;56.17;;
51987;SDS011;38003;52.012;4.346;2023-02-23T06:12:42;66.80;;;54.40;;
51987;SDS011;38003;52.012;4.346;2023-02-23T06:15:10;67.77;;;53.07;;
51987;SDS011;38003;52.012;4.346;2023-02-23T06:17:40;69.57;;;56.33;;
51987;SDS011;38003;52.012;4.346;2023-02-23T06:20:09;73.00;;;64.67;;
51987;SDS011;38003;52.012;4.346;2023-02-23T06:22:37;70.67;;;60.47;;
51987;SDS011;38003;52.012;4.346;2023-02-23T06:25:07;76.13;;;63.13;;
51987;SDS011;38003;52.012;4.346;2023-02-23T06:27:38;72.07;;;64.03;;
51987;SDS011;38003;52.012;4.346;2023-02-23T06:30:07;73.00;;;65.40;;
51987;SDS011;38003;52.012;4.346;2023-02-23T06:32:36;71.57;;;62.63;;
51987;SDS011;38003;52.012;4.346;2023-02-23T06:35:07;65.03;;;52.93;;
51987;SDS011;38003;52.012;4.346;2023-02-23T06:37:35;64.00;;;48.70;;
51987;SDS011;38003;52.012;4.346;2023-02-23T06:40:03;64.27;;;51.83;;
51987;SDS011;38003;52.012;4.346;2023-02-23T06:42:32;64.87;;;49.47;;
51987;SDS011;38003;52.012;4.346;2023-02-23T06:45:01;64.07;;;50.67;;
51987;SDS011;38003;52.012;4.346;2023-02-23T06:47:30;63.30;;;49.37;;
51987;SDS011;38003;52.012;4.346;2023-02-23T06:49:58;66.47;;;51.73;;
51987;SDS011;38003;52.012;4.346;2023-02-23T06:52:29;73.00;;;55.43;;
51987;SDS011;38003;52.012;4.346;2023-02-23T06:54:57;67.33;;;59.83;;
51987;SDS011;38003;52.012;4.346;2023-02-23T06:57:25;69.23;;;52.53;;
51987;SDS011;38003;52.012;4.346;2023-02-23T06:59:53;65.13;;;53.47;;
51987;SDS011;38003;52.012;4.346;2023-02-23T07:02:22;62.60;;;52.73;;
51987;SDS011;38003;52.012;4.346;2023-02-23T07:04:50;71.10;;;60.97;;
51987;SDS011;38003;52.012;4.346;2023-02-23T07:07:18;65.33;;;55.73;;
51987;SDS011;38003;52.012;4.346;2023-02-23T07:09:48;64.57;;;57.63;;
51987;SDS011;38003;52.012;4.346;2023-02-23T07:12:16;62.93;;;53.43;;
51987;SDS011;38003;52.012;4.346;2023-02-23T07:14:45;83.80;;;75.93;;
51987;SDS011;38003;52.012;4.346;2023-02-23T07:17:13;65.63;;;58.73;;
51987;SDS011;38003;52.012;4.346;2023-02-23T07:19:43;60.93;;;46.90;;
51987;SDS011;38003;52.012;4.346;2023-02-23T07:22:11;58.60;;;48.30;;
51987;SDS011;38003;52.012;4.346;2023-02-23T07:24:39;59.33;;;50.27;;
51987;SDS011;38003;52.012;4.346;2023-02-23T07:27:09;55.30;;;45.17;;
51987;SDS011;38003;52.012;4.346;2023-02-23T07:29:37;50.93;;;42.80;;
51987;SDS011;38003;52.012;4.346;2023-02-23T07:32:06;50.60;;;38.90;;
51987;SDS011;38003;52.012;4.346;2023-02-23T07:34:34;52.27;;;37.27;;
51987;SDS011;38003;52.012;4.346;2023-02-23T07:37:03;45.13;;;32.77;;
51987;SDS011;38003;52.012;4.346;2023-02-23T07:39:31;46.47;;;34.27;;
51987;SDS011;38003;52.012;4.346;2023-02-23T07:41:59;48.80;;;34.00;;
51987;SDS011;38003;52.012;4.346;2023-02-23T07:44:28;46.10;;;32.13;;
51987;SDS011;38003;52.012;4.346;2023-02-23T07:46:57;42.77;;;30.63;;
51987;SDS011;38003;52.012;4.346;2023-02-23T07:49:25;39.73;;;30.17;;
51987;SDS011;38003;52.012;4.346;2023-02-23T07:51:53;41.60;;;31.13;;
51987;SDS011;38003;52.012;4.346;2023-02-23T07:54:21;39.13;;;32.77;;
51987;SDS011;38003;52.012;4.346;2023-02-23T07:56:50;47.77;;;42.43;;
51987;SDS011;38003;52.012;4.346;2023-02-23T07:59:18;42.53;;;34.40;;
51987;SDS011;38003;52.012;4.346;2023-02-23T08:01:48;35.43;;;26.77;;
51987;SDS011;38003;52.012;4.346;2023-02-23T08:04:17;30.77;;;26.20;;
51987;SDS011;38003;52.012;4.346;2023-02-23T08:06:45;32.50;;;27.13;;
51987;SDS011;38003;52.012;4.346;2023-02-23T08:09:14;29.87;;;24.13;;
51987;SDS011;38003;52.012;4.346;2023-02-23T08:11:42;31.50;;;23.10;;
51987;SDS011;38003;52.012;4.346;2023-02-23T08:14:10;31.27;;;24.73;;
51987;SDS011;38003;52.012;4.346;2023-02-23T08:16:38;28.97;;;24.60;;
51987;SDS011;38003;52.012;4.346;2023-02-23T08:19:08;31.30;;;26.43;;
51987;SDS011;38003;52.012;4.346;2023-02-23T08:21:37;28.40;;;24.30;;
51987;SDS011;38003;52.012;4.346;2023-02-23T08:24:05;28.57;;;20.60;;
51987;SDS011;38003;52.012;4.346;2023-02-23T08:26:34;28.17;;;20.93;;
51987;SDS011;38003;52.012;4.346;2023-02-23T08:29:03;26.80;;;23.53;;
51987;SDS011;38003;52.012;4.346;2023-02-23T08:31:31;27.03;;;20.57;;
51987;SDS011;38003;52.012;4.346;2023-02-23T08:34:00;25.73;;;21.30;;
51987;SDS011;38003;52.012;4.346;2023-02-23T08:36:29;25.30;;;22.40;;
51987;SDS011;38003;52.012;4.346;2023-02-23T08:38:58;26.33;;;23.63;;
51987;SDS011;38003;52.012;4.346;2023-02-23T08:41:27;24.37;;;22.20;;
51987;SDS011;38003;52.012;4.346;2023-02-23T08:43:57;19.50;;;17.40;;
51987;SDS011;38003;52.012;4.346;2023-02-23T08:46:25;22.20;;;19.87;;
51987;SDS011;38003;52.012;4.346;2023-02-23T08:48:54;21.20;;;18.93;;
51987;SDS011;38003;52.012;4.346;2023-02-23T08:51:22;17.13;;;15.43;;
51987;SDS011;38003;52.012;4.346;2023-02-23T08:53:52;18.33;;;15.00;;
51987;SDS011;38003;52.012;4.346;2023-02-23T08:56:22;18.53;;;16.53;;
51987;SDS011;38003;52.012;4.346;2023-02-23T08:58:52;18.43;;;14.80;;
51987;SDS011;38003;52.012;4.346;2023-02-23T09:01:20;17.30;;;15.40;;
51987;SDS011;38003;52.012;4.346;2023-02-23T09:03:48;17.47;;;15.67;;
51987;SDS011;38003;52.012;4.346;2023-02-23T09:06:17;18.53;;;14.53;;
51987;SDS011;38003;52.012;4.346;2023-02-23T09:08:46;19.20;;;16.60;;
51987;SDS011;38003;52.012;4.346;2023-02-23T09:11:16;18.13;;;16.17;;
51987;SDS011;38003;52.012;4.346;2023-02-23T09:13:45;17.03;;;13.67;;
51987;SDS011;38003;52.012;4.346;2023-02-23T09:16:13;17.90;;;12.77;;
51987;SDS011;38003;52.012;4.346;2023-02-23T09:18:41;15.80;;;14.03;;
51987;SDS011;38003;52.012;4.346;2023-02-23T09:21:13;17.53;;;15.73;;
51987;SDS011;38003;52.012;4.346;2023-02-23T09:23:44;16.70;;;14.13;;
51987;SDS011;38003;52.012;4.346;2023-02-23T09:26:13;16.60;;;13.03;;
51987;SDS011;38003;52.012;4.346;2023-02-23T09:28:44;16.20;;;12.67;;
51987;SDS011;38003;52.012;4.346;2023-02-23T09:31:13;17.93;;;13.50;;
51987;SDS011;38003;52.012;4.346;2023-02-23T09:33:42;16.50;;;14.27;;
51987;SDS011;38003;52.012;4.346;2023-02-23T09:36:11;17.23;;;14.50;;
51987;SDS011;38003;52.012;4.346;2023-02-23T09:38:41;23.13;;;18.77;;
51987;SDS011;38003;52.012;4.346;2023-02-23T09:41:21;20.13;;;15.47;;
51987;SDS011;38003;52.012;4.346;2023-02-23T09:43:54;17.07;;;14.40;;
51987;SDS011;38003;52.012;4.346;2023-02-23T09:46:27;16.80;;;13.60;;
51987;SDS011;38003;52.012;4.346;2023-02-23T09:49:00;16.30;;;12.80;;
51987;SDS011;38003;52.012;4.346;2023-02-23T09:51:29;14.63;;;11.40;;
51987;SDS011;38003;52.012;4.346;2023-02-23T09:53:59;14.47;;;10.83;;
51987;SDS011;38003;52.012;4.346;2023-02-23T09:56:30;16.00;;;11.30;;
51987;SDS011;38003;52.012;4.346;2023-02-23T09:59:02;17.07;;;11.23;;
51987;SDS011;38003;52.012;4.346;2023-02-23T10:01:47;15.37;;;11.80;;
51987;SDS011;38003;52.012;4.346;2023-02-23T10:04:19;15.87;;;11.47;;
51987;SDS011;38003;52.012;4.346;2023-02-23T10:06:49;17.23;;;11.27;;
51987;SDS011;38003;52.012;4.346;2023-02-23T10:09:21;15.50;;;12.07;;
51987;SDS011;38003;52.012;4.346;2023-02-23T10:11:51;15.03;;;12.17;;
51987;SDS011;38003;52.012;4.346;2023-02-23T10:14:28;16.33;;;12.57;;
51987;SDS011;38003;52.012;4.346;2023-02-23T10:17:04;16.80;;;11.73;;
51987;SDS011;38003;52.012;4.346;2023-02-23T10:19:39;15.53;;;12.10;;
51987;SDS011;38003;52.012;4.346;2023-02-23T10:22:09;18.70;;;13.30;;
51987;SDS011;38003;52.012;4.346;2023-02-23T10:24:40;18.33;;;13.20;;
51987;SDS011;38003;52.012;4.346;2023-02-23T10:27:12;17.63;;;12.60;;
51987;SDS011;38003;52.012;4.346;2023-02-23T10:29:45;17.53;;;13.90;;
51987;SDS011;38003;52.012;4.346;2023-02-23T10:32:17;20.50;;;13.03;;
51987;SDS011;38003;52.012;4.346;2023-02-23T10:34:48;21.10;;;13.90;;
51987;SDS011;38003;52.012;4.346;2023-02-23T10:37:19;19.03;;;14.00;;
51987;SDS011;38003;52.012;4.346;2023-02-23T10:39:47;22.23;;;17.20;;
51987;SDS011;38003;52.012;4.346;2023-02-23T10:42:18;19.00;;;14.63;;
51987;SDS011;38003;52.012;4.346;2023-02-23T10:44:48;17.97;;;14.00;;
51987;SDS011;38003;52.012;4.346;2023-02-23T10:47:18;17.47;;;13.30;;
51987;SDS011;38003;52.012;4.346;2023-02-23T10:49:47;20.20;;;13.33;;
51987;SDS011;38003;52.012;4.346;2023-02-23T10:52:19;17.57;;;13.13;;
51987;SDS011;38003;52.012;4.346;2023-02-23T10:54:49;17.60;;;12.53;;
51987;SDS011;38003;52.012;4.346;2023-02-23T10:57:19;17.70;;;13.30;;
51987;SDS011;38003;52.012;4.346;2023-02-23T11:00:00;21.03;;;13.93;;
51987;SDS011;38003;52.012;4.346;2023-02-23T11:02:28;21.43;;;16.50;;
51987;SDS011;38003;52.012;4.346;2023-02-23T11:04:57;21.20;;;18.53;;
51987;SDS011;38003;52.012;4.346;2023-02-23T11:07:26;22.20;;;18.37;;
51987;SDS011;38003;52.012;4.346;2023-02-23T11:09:56;23.33;;;20.53;;
51987;SDS011;38003;52.012;4.346;2023-02-23T11:12:26;26.93;;;24.20;;
51987;SDS011;38003;52.012;4.346;2023-02-23T11:14:56;29.70;;;26.97;;
51987;SDS011;38003;52.012;4.346;2023-02-23T11:17:30;35.47;;;32.20;;
51987;SDS011;38003;52.012;4.346;2023-02-23T11:19:59;39.20;;;35.60;;
51987;SDS011;38003;52.012;4.346;2023-02-23T11:22:32;38.53;;;35.23;;
51987;SDS011;38003;52.012;4.346;2023-02-23T11:25:02;44.20;;;40.60;;
51987;SDS011;38003;52.012;4.346;2023-02-23T11:27:31;38.97;;;35.57;;
51987;SDS011;38003;52.012;4.346;2023-02-23T11:30:02;31.87;;;28.77;;
51987;SDS011;38003;52.012;4.346;2023-02-23T11:32:33;31.20;;;22.00;;
51987;SDS011;38003;52.012;4.346;2023-02-23T11:35:11;26.27;;;20.40;;
51987;SDS011;38003;52.012;4.346;2023-02-23T11:37:40;24.23;;;19.10;;
51987;SDS011;38003;52.012;4.346;2023-02-23T11:40:18;28.33;;;23.13;;
51987;SDS011;38003;52.012;4.346;2023-02-23T11:42:50;25.87;;;20.80;;
51987;SDS011;38003;52.012;4.346;2023-02-23T11:45:20;25.43;;;19.60;;
51987;SDS011;38003;52.012;4.346;2023-02-23T11:47:51;26.63;;;20.07;;
51987;SDS011;38003;52.012;4.346;2023-02-23T11:50:20;29.43;;;19.63;;
51987;SDS011;38003;52.012;4.346;2023-02-23T11:52:51;32.37;;;21.40;;
51987;SDS011;38003;52.012;4.346;2023-02-23T11:55:20;35.23;;;23.10;;
51987;SDS011;38003;52.012;4.346;2023-02-23T11:57:50;30.23;;;24.17;;
51987;SDS011;38003;52.012;4.346;2023-02-23T12:00:23;30.60;;;21.07;;
51987;SDS011;38003;52.012;4.346;2023-02-23T12:02:55;29.90;;;22.57;;
51987;SDS011;38003;52.012;4.346;2023-02-23T12:05:25;31.37;;;20.63;;
51987;SDS011;38003;52.012;4.346;2023-02-23T12:07:58;34.57;;;20.50;;
51987;SDS011;38003;52.012;4.346;2023-02-23T12:10:29;30.47;;;20.37;;
51987;SDS011;38003;52.012;4.346;2023-02-23T12:13:00;30.63;;;18.20;;
51987;SDS011;38003;52.012;4.346;2023-02-23T12:15:33;30.10;;;19.17;;
51987;SDS011;38003;52.012;4.346;2023-02-23T12:18:05;31.27;;;20.73;;
51987;SDS011;38003;52.012;4.346;2023-02-23T12:20:36;29.43;;;17.73;;
51987;SDS011;38003;52.012;4.346;2023-02-23T12:23:06;28.83;;;19.13;;
51987;SDS011;38003;52.012;4.346;2023-02-23T12:25:37;32.97;;;18.63;;
51987;SDS011;38003;52.012;4.346;2023-02-23T12:28:09;30.97;;;18.10;;
51987;SDS011;38003;52.012;4.346;2023-02-23T12:30:45;31.60;;;19.10;;
51987;SDS011;38003;52.012;4.346;2023-02-23T12:33:17;34.87;;;20.93;;
51987;SDS011;38003;52.012;4.346;2023-02-23T12:35:49;32.67;;;20.13;;
51987;SDS011;38003;52.012;4.346;2023-02-23T12:38:22;35.93;;;21.17;;
51987;SDS011;38003;52.012;4.346;2023-02-23T12:40:55;37.10;;;20.43;;
51987;SDS011;38003;52.012;4.346;2023-02-23T12:43:28;38.37;;;22.50;;
51987;SDS011;38003;52.012;4.346;2023-02-23T12:46:02;39.13;;;21.97;;
51987;SDS011;38003;52.012;4.346;2023-02-23T12:48:46;36.83;;;22.37;;
51987;SDS011;38003;52.012;4.346;2023-02-23T12:51:21;35.70;;;22.33;;
51987;SDS011;38003;52.012;4.346;2023-02-23T12:53:51;32.93;;;21.37;;
51987;SDS011;38003;52.012;4.346;2023-02-23T12:56:28;38.37;;;23.30;;
51987;SDS011;38003;52.012;4.346;2023-02-23T12:59:08;31.33;;;20.67;;
51987;SDS011;38003;52.012;4.346;2023-02-23T13:01:41;26.60;;;18.67;;
51987;SDS011;38003;52.012;4.346;2023-02-23T13:04:27;30.63;;;18.93;;
51987;SDS011;38003;52.012;4.346;2023-02-23T13:07:01;26.83;;;15.50;;
51987;SDS011;38003;52.012;4.346;2023-02-23T13:09:36;19.53;;;13.00;;
51987;SDS011;38003;52.012;4.346;2023-02-23T13:14:55;25.47;;;15.43;;
51987;SDS011;38003;52.012;4.346;2023-02-23T13:17:27;22.43;;;14.10;;
51987;SDS011;38003;52.012;4.346;2023-02-23T13:20:00;19.20;;;12.70;;
51987;SDS011;38003;52.012;4.346;2023-02-23T13:22:31;22.07;;;13.57;;
51987;SDS011;38003;52.012;4.346;2023-02-23T13:25:02;18.57;;;12.60;;
51987;SDS011;38003;52.012;4.346;2023-02-23T13:27:33;19.70;;;12.67;;
51987;SDS011;38003;52.012;4.346;2023-02-23T13:30:02;17.23;;;10.50;;
51987;SDS011;38003;52.012;4.346;2023-02-23T13:32:32;19.00;;;11.10;;
51987;SDS011;38003;52.012;4.346;2023-02-23T13:35:04;21.63;;;13.47;;
51987;SDS011;38003;52.012;4.346;2023-02-23T13:37:34;20.27;;;12.33;;
51987;SDS011;38003;52.012;4.346;2023-02-23T13:40:13;18.10;;;12.57;;
51987;SDS011;38003;52.012;4.346;2023-02-23T13:42:47;20.00;;;12.97;;
51987;SDS011;38003;52.012;4.346;2023-02-23T13:45:33;21.03;;;15.03;;
51987;SDS011;38003;52.012;4.346;2023-02-23T13:48:04;22.40;;;16.43;;
51987;SDS011;38003;52.012;4.346;2023-02-23T13:50:41;21.70;;;15.67;;
51987;SDS011;38003;52.012;4.346;2023-02-23T13:53:26;22.97;;;15.57;;
51987;SDS011;38003;52.012;4.346;2023-02-23T13:55:56;22.37;;;14.63;;
51987;SDS011;38003;52.012;4.346;2023-02-23T13:58:26;25.40;;;15.27;;
51987;SDS011;38003;52.012;4.346;2023-02-23T14:01:02;19.83;;;14.27;;
51987;SDS011;38003;52.012;4.346;2023-02-23T14:03:32;21.10;;;13.50;;
51987;SDS011;38003;52.012;4.346;2023-02-23T14:06:04;19.10;;;13.37;;
51987;SDS011;38003;52.012;4.346;2023-02-23T14:08:34;17.60;;;12.30;;
51987;SDS011;38003;52.012;4.346;2023-02-23T14:11:03;16.70;;;12.40;;
51987;SDS011;38003;52.012;4.346;2023-02-23T14:13:32;16.40;;;11.57;;
51987;SDS011;38003;52.012;4.346;2023-02-23T14:16:09;17.27;;;11.63;;
51987;SDS011;38003;52.012;4.346;2023-02-23T14:21:42;16.37;;;8.00;;
51987;SDS011;38003;52.012;4.346;2023-02-23T14:24:16;13.27;;;7.93;;
51987;SDS011;38003;52.012;4.346;2023-02-23T14:29:29;15.03;;;8.27;;
51987;SDS011;38003;52.012;4.346;2023-02-23T14:32:00;14.50;;;8.90;;
51987;SDS011;38003;52.012;4.346;2023-02-23T14:34:42;16.40;;;9.43;;
51987;SDS011;38003;52.012;4.346;2023-02-23T14:37:16;19.30;;;9.57;;
51987;SDS011;38003;52.012;4.346;2023-02-23T14:39:47;18.20;;;8.43;;
51987;SDS011;38003;52.012;4.346;2023-02-23T14:42:19;20.83;;;9.77;;
51987;SDS011;38003;52.012;4.346;2023-02-23T14:44:48;16.77;;;8.37;;
51987;SDS011;38003;52.012;4.346;2023-02-23T14:47:18;17.50;;;9.47;;
51987;SDS011;38003;52.012;4.346;2023-02-23T14:49:48;15.73;;;7.60;;
51987;SDS011;38003;52.012;4.346;2023-02-23T14:52:20;14.17;;;6.50;;
51987;SDS011;38003;52.012;4.346;2023-02-23T14:54:49;12.80;;;6.53;;
51987;SDS011;38003;52.012;4.346;2023-02-23T14:57:19;11.10;;;5.93;;
51987;SDS011;38003;52.012;4.346;2023-02-23T14:59:54;14.93;;;5.30;;
51987;SDS011;38003;52.012;4.346;2023-02-23T15:02:24;8.57;;;4.50;;